Time;durP1;ratioP1;P1;durP2;ratioP2;P2;SDS_P1;SDS_P2;PMS_P1;PMS_P2;Temp;Humidity;BMP_temperature;BMP_pressure;BME280_temperature;BME280_humidity;BME280_pressure;Samples;Min_cycle;Max_cycle;Signal;HPM_P1;HPM_P2
2022/06/23 00:01:59;;;;;;;6.87;2.98;;;;;;;14.99;100.00;99029.39;1770329;79;21057;-66
2022/06/23 00:04:33;;;;;;;8.73;2.62;;;;;;;14.98;100.00;99033.02;1733085;82;21061;-67
2022/06/23 00:07:07;;;;;;;5.20;3.10;;;;;;;14.98;100.00;99038.31;1726631;82;21137;-68
2022/06/23 00:09:49;;;;;;;4.37;2.87;;;;;;;15.02;100.00;99042.41;1725592;79;21105;-65
2022/06/23 00:12:23;;;;;;;6.83;3.22;;;;;;;15.02;100.00;99043.28;1668922;86;21585;-65
2022/06/23 00:15:05;;;;;;;3.70;2.90;;;;;;;15.00;100.00;99039.02;1730915;82;21033;-66
2022/06/23 00:17:40;;;;;;;5.67;3.10;;;;;;;15.01;100.00;99036.75;1698227;83;21073;-64
2022/06/23 00:20:16;;;;;;;8.38;3.02;;;;;;;15.00;100.00;99039.89;1731021;82;21136;-65
2022/06/23 00:22:47;;;;;;;3.42;2.87;;;;;;;15.01;100.00;99030.12;1729516;82;22025;-64
2022/06/23 00:25:58;;;;;;;6.72;3.20;;;;;;;15.00;100.00;99037.69;1723321;79;21053;-68
2022/06/23 00:28:35;;;;;;;3.65;2.90;;;;;;;15.02;100.00;99045.06;1679166;85;21098;-67
2022/06/23 00:31:06;;;;;;;6.75;2.80;;;;;;;15.01;100.00;99043.38;1679168;85;21041;-67
2022/06/23 00:33:41;;;;;;;5.60;3.10;;;;;;;15.01;100.00;99041.57;1679034;85;21147;-67
2022/06/23 00:36:24;;;;;;;8.78;3.20;;;;;;;15.02;100.00;99034.45;1679150;85;21098;-66
2022/06/23 00:41:34;;;;;;;3.62;3.15;;;;;;;15.05;100.00;99033.77;1680076;83;21056;-66
2022/06/23 00:44:04;;;;;;;;;;;;;;;15.06;100.00;99039.91;1681545;85;21041;-66
2022/06/23 00:46:39;;;;;;;7.77;3.73;;;;;;;15.06;100.00;99038.58;1698622;84;21379;-68
2022/06/23 00:49:41;;;;;;;5.00;3.30;;;;;;;15.05;100.00;99038.23;1674402;85;21606;-68
2022/06/23 00:52:25;;;;;;;6.55;3.10;;;;;;;15.06;100.00;99039.91;1681105;84;21069;-68
2022/06/23 00:54:55;;;;;;;4.17;3.30;;;;;;;15.02;100.00;99035.33;1695459;79;20998;-66
2022/06/23 00:57:38;;;;;;;4.20;3.33;;;;;;;15.00;100.00;99040.34;1799421;79;21042;-66
2022/06/23 01:00:24;;;;;;;6.42;3.52;;;;;;;14.96;100.00;99040.22;1752153;81;21253;-66
2022/06/23 01:03:09;;;;;;;7.75;3.95;;;;;;;14.92;100.00;99032.13;1775375;79;21034;-66
2022/06/23 01:05:53;;;;;;;5.65;3.95;;;;;;;14.89;100.00;99023.43;1775930;80;21078;-67
2022/06/23 01:08:44;;;;;;;6.80;4.05;;;;;;;14.86;100.00;99013.52;1776814;80;21049;-66
2022/06/23 01:11:29;;;;;;;9.70;4.40;;;;;;;14.82;100.00;99015.55;1702199;79;21064;-70
2022/06/23 01:14:16;;;;;;;10.10;3.80;;;;;;;14.79;100.00;99015.79;1682130;85;21249;-66
2022/06/23 01:16:47;;;;;;;7.30;4.97;;;;;;;14.78;100.00;99022.03;1701471;84;22016;-66
2022/06/23 01:19:35;;;;;;;;;;;;;;;14.79;100.00;99014.46;1672650;85;21081;-66
2022/06/23 01:22:05;;;;;;;6.00;4.15;;;;;;;14.72;100.00;99017.16;1700925;84;20182;-68
2022/06/23 01:25:11;;;;;;;9.20;4.08;;;;;;;14.74;100.00;99014.41;1704375;81;21632;-67
2022/06/23 01:28:17;;;;;;;8.45;4.65;;;;;;;14.68;100.00;99021.84;1722776;82;21260;-68
2022/06/23 01:31:02;;;;;;;6.92;4.45;;;;;;;14.74;100.00;99017.90;1692059;84;21115;-67
2022/06/23 01:33:54;;;;;;;8.93;5.87;;;;;;;14.69;100.00;99023.53;1685669;84;21623;-67
2022/06/23 01:36:43;;;;;;;12.78;5.00;;;;;;;14.63;100.00;99022.66;1722967;83;21047;-68
2022/06/23 01:39:24;;;;;;;9.90;5.22;;;;;;;14.57;100.00;99023.58;1721015;83;21051;-66
2022/06/23 01:42:18;;;;;;;9.60;5.47;;;;;;;14.54;100.00;99027.71;1622608;88;21240;-68
2022/06/23 01:44:53;;;;;;;12.13;6.20;;;;;;;14.48;100.00;99020.58;1663181;86;21092;-67
2022/06/23 01:47:51;;;;;;;8.25;4.65;;;;;;;14.48;100.00;99022.38;1649384;86;21113;-68
2022/06/23 01:50:29;;;;;;;9.13;5.72;;;;;;;14.45;100.00;99027.42;1662646;86;21595;-68
2022/06/23 01:53:21;;;;;;;10.35;5.85;;;;;;;14.43;100.00;99028.01;1649567;87;21597;-70
2022/06/23 01:56:15;;;;;;;11.53;5.42;;;;;;;14.42;100.00;99026.33;1676666;83;21150;-66
2022/06/23 01:58:57;;;;;;;7.92;5.42;;;;;;;14.37;100.00;99032.89;1668942;86;21552;-67
2022/06/23 02:01:32;;;;;;;11.63;5.72;;;;;;;14.31;100.00;99028.88;1728024;82;21061;-67
2022/06/23 02:04:04;;;;;;;9.70;5.20;;;;;;;14.30;100.00;99032.47;1671010;85;21073;-67
2022/06/23 02:06:45;;;;;;;9.03;6.03;;;;;;;14.30;100.00;99027.66;1711769;82;21684;-67
2022/06/23 02:09:42;;;;;;;7.95;5.60;;;;;;;14.28;100.00;99029.91;1670713;85;21145;-66
2022/06/23 02:12:23;;;;;;;9.60;5.20;;;;;;;14.27;100.00;99031.37;1688200;85;21082;-65
2022/06/23 02:14:58;;;;;;;6.67;4.42;;;;;;;14.30;100.00;99035.11;1685366;83;21050;-65
2022/06/23 02:17:42;;;;;;;13.32;5.78;;;;;;;14.32;100.00;99035.02;1643414;87;21418;-65
2022/06/23 02:20:59;;;;;;;11.78;6.00;;;;;;;14.34;100.00;99044.55;1686020;84;21046;-66
2022/06/23 02:23:39;;;;;;;11.80;5.45;;;;;;;14.36;100.00;99047.94;1643636;87;21269;-67
2022/06/23 02:26:34;;;;;;;10.53;5.62;;;;;;;14.37;100.00;99046.13;1702781;82;21090;-69
2022/06/23 02:29:25;;;;;;;8.68;5.55;;;;;;;14.40;100.00;99049.42;1713403;83;21067;-68
2022/06/23 02:32:06;;;;;;;6.22;4.80;;;;;;;14.42;100.00;99050.63;1713639;83;21099;-68
2022/06/23 02:34:45;;;;;;;8.35;5.40;;;;;;;14.43;100.00;99047.03;1713641;83;21110;-67
2022/06/23 02:37:55;;;;;;;8.88;5.15;;;;;;;14.47;100.00;99054.66;1713504;83;21138;-68
2022/06/23 02:40:42;;;;;;;5.55;4.83;;;;;;;14.51;100.00;99053.11;1704873;80;21605;-69
2022/06/23 02:43:26;;;;;;;9.75;5.22;;;;;;;14.54;100.00;99048.48;1687527;85;21547;-67
2022/06/23 02:46:11;;;;;;;9.08;5.15;;;;;;;14.58;100.00;99053.08;1682441;85;21048;-68
2022/06/23 02:49:06;;;;;;;8.13;4.65;;;;;;;14.59;100.00;99050.81;1679248;85;21067;-69
2022/06/23 02:52:10;;;;;;;9.95;4.97;;;;;;;14.62;100.00;99053.23;1678913;85;21516;-70
2022/06/23 02:57:23;;;;;;;9.78;5.37;;;;;;;14.71;100.00;99057.88;1711774;83;21537;-65
2022/06/23 03:00:26;;;;;;;6.08;4.35;;;;;;;14.75;100.00;99059.36;1708087;83;21551;-65
2022/06/23 03:03:24;;;;;;;7.35;4.70;;;;;;;14.80;100.00;99063.01;1704249;84;21010;-66
2022/06/23 03:06:14;;;;;;;5.83;4.67;;;;;;;14.81;100.00;99060.71;1704398;84;21082;-67
2022/06/23 03:08:55;;;;;;;5.30;4.53;;;;;;;14.83;100.00;99059.64;1704497;84;21037;-66
2022/06/23 03:11:53;;;;;;;7.50;5.20;;;;;;;14.86;100.00;99058.12;1692517;80;21018;-68
2022/06/23 03:17:50;;;;;;;7.45;5.00;;;;;;;14.92;100.00;99067.91;1822389;78;22552;-69
2022/06/23 03:20:38;;;;;;;7.35;4.12;;;;;;;14.94;100.00;99072.63;1763399;80;21038;-70
2022/06/23 03:23:33;;;;;;;6.62;4.47;;;;;;;14.95;100.00;99071.17;1783596;80;21144;-69
2022/06/23 03:26:25;;;;;;;7.62;4.90;;;;;;;14.97;100.00;99060.46;1783571;78;21043;-66
2022/06/23 03:28:57;;;;;;;6.75;4.83;;;;;;;14.98;100.00;99065.66;1788446;80;21556;-66
2022/06/23 03:31:35;;;;;;;7.50;4.62;;;;;;;15.02;100.00;99059.64;1788401;80;21539;-66
2022/06/23 03:34:37;;;;;;;10.55;5.17;;;;;;;15.07;100.00;99061.51;1788694;80;21539;-66
2022/06/23 03:37:26;;;;;;;7.25;4.17;;;;;;;15.10;100.00;99065.25;1788415;80;21133;-66
2022/06/23 03:43:18;;;;;;;7.40;4.10;;;;;;;15.18;100.00;99068.17;1753023;81;21064;-68
2022/06/23 03:46:13;;;;;;;11.85;4.47;;;;;;;15.26;100.00;99071.13;1734987;81;22109;-68
2022/06/23 03:48:44;;;;;;;5.80;4.25;;;;;;;15.33;100.00;99078.64;1721882;83;21533;-68
2022/06/23 03:51:13;;;;;;;;;;;;;;;15.39;100.00;99071.09;1724571;82;21400;-68
2022/06/23 03:54:03;;;;;;;8.50;5.08;;;;;;;15.40;100.00;99071.92;1721754;83;20186;-68
2022/06/23 03:56:45;;;;;;;6.33;4.47;;;;;;;15.40;100.00;99078.06;1740723;78;21027;-66
2022/06/23 03:59:35;;;;;;;7.45;4.80;;;;;;;15.42;100.00;99082.78;1784847;80;21044;-69
2022/06/23 04:02:16;;;;;;;10.68;5.12;;;;;;;15.46;100.00;99090.02;1784245;80;21075;-64
2022/06/23 04:04:54;;;;;;;7.47;5.25;;;;;;;15.47;100.00;99096.55;1783645;80;21151;-68
2022/06/23 04:07:41;;;;;;;8.88;5.20;;;;;;;15.52;100.00;99104.17;1785029;80;21029;-68
2022/06/23 04:10:11;;;;;;;5.42;4.47;;;;;;;15.57;100.00;99109.14;1767234;76;21038;-72
2022/06/23 04:12:47;;;;;;;6.08;4.58;;;;;;;15.59;100.00;99118.68;1668856;85;21095;-72
2022/06/23 04:15:24;;;;;;;8.15;4.95;;;;;;;15.60;100.00;99116.41;1650333;86;21085;-71
2022/06/23 04:17:55;;;;;;;9.78;5.08;;;;;;;15.59;100.00;99114.70;1630649;87;21372;-72
2022/06/23 04:20:35;;;;;;;6.97;4.30;;;;;;;15.61;100.00;99122.07;1649059;85;21127;-72
2022/06/23 04:23:21;;;;;;;6.85;4.62;;;;;;;15.62;100.00;99118.47;1629728;87;21129;-74
2022/06/23 04:25:59;;;;;;;8.98;4.78;;;;;;;15.64;100.00;99108.56;1680604;80;21582;-70
2022/06/23 04:28:36;;;;;;;8.95;4.97;;;;;;;15.70;100.00;99116.11;1713429;82;21108;-69
2022/06/23 04:31:06;;;;;;;11.00;5.35;;;;;;;15.76;100.00;99114.83;1700966;84;22203;-68
2022/06/23 04:33:40;;;;;;;13.93;4.78;;;;;;;15.80;100.00;99118.08;1732711;82;21642;-69
2022/06/23 04:36:15;;;;;;;9.65;5.03;;;;;;;15.86;100.00;99117.63;1722012;82;21581;-70
2022/06/23 04:39:11;;;;;;;10.82;4.03;;;;;;;15.93;100.00;99121.52;1709048;83;21061;-70
2022/06/23 04:42:01;;;;;;;6.80;4.22;;;;;;;16.05;100.00;99120.58;1757732;78;21021;-73
2022/06/23 04:44:30;;;;;;;5.67;3.90;;;;;;;16.20;100.00;99124.39;1810579;77;21142;-73
2022/06/23 04:47:07;;;;;;;5.45;4.70;;;;;;;16.28;100.00;99122.81;1830141;77;21009;-73
2022/06/23 04:49:39;;;;;;;10.00;4.58;;;;;;;16.38;100.00;99120.31;1829405;77;21033;-72
2022/06/23 04:52:32;;;;;;;10.03;4.80;;;;;;;16.51;100.00;99126.84;1815204;77;21104;-73
2022/06/23 04:55:25;;;;;;;10.93;4.85;;;;;;;16.63;100.00;99131.68;1764111;79;21101;-72
2022/06/23 04:58:20;;;;;;;7.00;4.30;;;;;;;16.74;100.00;99125.05;1711779;81;21147;-69
2022/06/23 05:00:52;;;;;;;7.87;4.22;;;;;;;16.86;100.00;99132.08;1752490;79;21170;-68
2022/06/23 05:03:24;;;;;;;11.15;4.72;;;;;;;16.96;100.00;99133.55;1716200;81;21050;-68
2022/06/23 05:06:08;;;;;;;7.03;4.20;;;;;;;17.04;100.00;99136.92;1753291;79;21072;-68
2022/06/23 05:08:38;;;;;;;10.13;4.45;;;;;;;17.08;100.00;99136.55;1741969;79;21101;-70
2022/06/23 05:11:28;;;;;;;7.73;4.63;;;;;;;17.16;100.00;99143.91;1725182;79;21235;-70
2022/06/23 05:14:05;;;;;;;9.70;4.28;;;;;;;17.23;100.00;99141.61;1740469;82;21173;-70
2022/06/23 05:16:47;;;;;;;9.15;4.10;;;;;;;17.36;100.00;99143.16;1736304;82;21070;-70
2022/06/23 05:19:28;;;;;;;4.70;3.20;;;;;;;17.52;100.00;99137.93;1736692;82;21169;-70
2022/06/23 05:21:59;;;;;;;6.33;3.75;;;;;;;17.82;99.21;99131.44;1727598;81;21072;-69
2022/06/23 05:24:29;;;;;;;6.30;3.67;;;;;;;18.29;97.95;99139.56;1753301;80;21565;-71
2022/06/23 05:27:06;;;;;;;7.58;4.00;;;;;;;18.62;94.26;99132.69;1760551;79;21028;-68
2022/06/23 05:30:02;;;;;;;10.75;3.80;;;;;;;18.91;93.65;99132.03;1762103;80;21024;-69
2022/06/23 05:32:37;;;;;;;9.03;4.03;;;;;;;19.17;90.71;99131.55;1755451;80;21059;-69
2022/06/23 05:35:23;;;;;;;8.85;3.62;;;;;;;19.31;90.12;99137.84;1777343;80;21028;-69
2022/06/23 05:38:14;;;;;;;7.15;4.12;;;;;;;19.35;88.47;99145.06;1762746;80;21343;-69
2022/06/23 05:40:49;;;;;;;12.05;4.42;;;;;;;19.32;88.43;99147.52;1757007;78;24886;-72
2022/06/23 05:43:16;;;;;;;7.55;3.87;;;;;;;19.25;88.39;99147.72;1668098;85;21530;-72
2022/06/23 05:45:56;;;;;;;8.10;4.47;;;;;;;19.13;88.41;99146.14;1677163;85;21091;-73
2022/06/23 05:48:42;;;;;;;8.45;4.35;;;;;;;19.04;89.03;99168.64;1675137;84;21108;-73
2022/06/23 05:51:16;;;;;;;5.17;3.62;;;;;;;19.02;88.67;99165.25;1664823;85;21246;-74
2022/06/23 05:53:58;;;;;;;5.80;3.42;;;;;;;19.00;89.42;99164.57;1676790;85;21097;-74
2022/06/23 05:56:48;;;;;;;6.87;3.85;;;;;;;18.94;89.21;99165.09;1692661;81;21122;-67
2022/06/23 05:59:22;;;;;;;;;;;;;;;18.90;89.05;99164.16;1741383;82;21079;-69
2022/06/23 06:02:13;;;;;;;6.28;3.83;;;;;;;18.87;89.23;99161.28;1707527;82;20199;-71
2022/06/23 06:04:51;;;;;;;9.65;4.30;;;;;;;18.82;90.25;99163.50;1739056;81;21053;-70
2022/06/23 06:07:28;;;;;;;8.20;3.98;;;;;;;19.00;89.87;99167.70;1730987;82;21590;-70
2022/06/23 06:09:55;;;;;;;8.80;3.52;;;;;;;19.07;89.23;99167.05;1713445;82;21017;-69
2022/06/23 06:12:25;;;;;;;5.47;3.45;;;;;;;19.17;89.10;99168.42;1717095;80;21050;-71
2022/06/23 06:15:00;;;;;;;10.20;4.03;;;;;;;19.22;88.37;99165.34;1743444;82;21068;-70
2022/06/23 06:17:28;;;;;;;8.45;4.35;;;;;;;19.28;88.44;99164.81;1743523;82;21141;-71
2022/06/23 06:19:57;;;;;;;5.55;3.75;;;;;;;19.36;88.12;99173.47;1743748;82;20989;-71
2022/06/23 06:22:53;;;;;;;5.30;3.40;;;;;;;19.39;87.74;99183.36;1743669;82;21061;-69
2022/06/23 06:28:25;;;;;;;8.23;3.98;;;;;;;19.46;87.79;99192.55;1804590;79;21020;-72
2022/06/23 06:31:18;;;;;;;11.50;3.72;;;;;;;19.45;87.58;99186.83;1798959;79;21048;-73
2022/06/23 06:34:21;;;;;;;6.03;3.52;;;;;;;19.44;87.46;99193.17;1791221;79;21062;-73
2022/06/23 06:36:50;;;;;;;8.50;3.92;;;;;;;19.43;87.88;99186.13;1793772;79;21049;-71
2022/06/23 06:39:30;;;;;;;7.47;3.75;;;;;;;19.50;87.52;99180.59;1799351;79;21053;-71
2022/06/23 06:42:07;;;;;;;5.08;3.77;;;;;;;19.68;87.03;99186.61;1765777;78;21094;-71
2022/06/23 06:44:38;;;;;;;6.22;3.52;;;;;;;19.82;85.43;99188.91;1773183;79;21872;-69
2022/06/23 06:47:05;;;;;;;4.67;3.50;;;;;;;19.80;85.12;99189.53;1768861;81;20973;-71
2022/06/23 06:49:32;;;;;;;9.48;3.70;;;;;;;19.77;85.63;99197.84;1772401;81;21612;-70
2022/06/23 06:51:59;;;;;;;4.33;3.37;;;;;;;19.73;85.11;99210.27;1749216;80;21123;-71
2022/06/23 06:54:49;;;;;;;10.00;3.92;;;;;;;19.63;84.98;99202.20;1765668;81;21077;-69
2022/06/23 06:57:23;;;;;;;4.77;3.50;;;;;;;19.61;85.82;99209.52;1776662;78;21155;-73
2022/06/23 07:00:05;;;;;;;18.27;3.85;;;;;;;19.57;85.79;99216.09;1767689;78;21051;-72
2022/06/23 07:02:46;;;;;;;7.33;3.33;;;;;;;19.52;85.65;99220.52;1761210;81;20984;-74
2022/06/23 07:05:43;;;;;;;7.72;4.00;;;;;;;19.47;86.69;99208.91;1764990;81;21071;-73
2022/06/23 07:08:31;;;;;;;8.33;3.62;;;;;;;19.47;86.16;99216.91;1784525;79;21012;-73
2022/06/23 07:11:35;;;;;;;9.88;4.92;;;;;;;19.43;86.53;99223.50;1786619;74;21122;-69
2022/06/23 07:14:28;;;;;;;8.15;4.30;;;;;;;19.45;87.09;99217.54;1732972;81;21554;-69
2022/06/23 07:17:02;;;;;;;6.15;3.83;;;;;;;19.54;86.59;99214.55;1767528;81;21092;-69
2022/06/23 07:19:41;;;;;;;7.15;3.20;;;;;;;19.70;85.72;99224.75;1767451;81;21047;-70
2022/06/23 07:22:22;;;;;;;5.45;3.37;;;;;;;19.81;85.33;99237.16;1767524;81;21602;-69
2022/06/23 07:25:13;;;;;;;5.78;3.90;;;;;;;19.94;83.90;99227.52;1767690;81;21215;-69
2022/06/23 07:27:46;;;;;;;;;;;;;;;20.06;83.62;99229.08;1756112;78;21593;-73
2022/06/23 07:30:21;;;;;;;7.50;3.77;;;;;;;20.20;83.63;99235.37;1743629;82;20190;-74
2022/06/23 07:32:53;;;;;;;9.53;3.87;;;;;;;20.43;83.21;99233.72;1738979;82;21076;-72
2022/06/23 07:35:28;;;;;;;7.03;3.80;;;;;;;20.59;80.76;99240.73;1741730;82;21561;-73
2022/06/23 07:38:21;;;;;;;6.05;3.83;;;;;;;20.69;79.91;99242.89;1712456;82;21575;-72
2022/06/23 07:43:59;;;;;;;17.80;3.50;;;;;;;20.98;79.08;99254.52;1621393;86;21065;-73
2022/06/23 07:46:25;;;;;;;8.65;3.50;;;;;;;21.09;79.05;99256.53;1615383;86;21187;-72
2022/06/23 07:48:52;;;;;;;5.97;3.50;;;;;;;21.26;78.50;99259.46;1611640;86;21046;-71
2022/06/23 07:51:21;;;;;;;11.93;3.33;;;;;;;21.42;78.19;99261.05;1611063;86;21084;-72
2022/06/23 07:53:50;;;;;;;7.37;3.22;;;;;;;21.60;76.45;99261.59;1642021;85;21105;-72
2022/06/23 07:56:20;;;;;;;8.75;3.40;;;;;;;21.65;75.72;99252.59;1662304;78;21139;-71
2022/06/23 07:58:49;;;;;;;7.47;2.58;;;;;;;21.74;75.35;99257.06;1788660;80;20986;-70
2022/06/23 08:01:27;;;;;;;4.85;3.20;;;;;;;21.79;75.06;99256.98;1789536;80;21022;-70
2022/06/23 08:04:05;;;;;;;6.05;2.83;;;;;;;21.84;73.55;99256.53;1789351;80;21489;-71
2022/06/23 08:06:33;;;;;;;3.47;2.67;;;;;;;21.93;74.01;99266.34;1781205;80;21014;-72
2022/06/23 08:09:11;;;;;;;6.35;3.17;;;;;;;22.07;74.71;99266.83;1781065;80;20975;-71
2022/06/23 08:14:35;;;;;;;5.08;3.00;;;;;;;22.22;72.70;99273.37;1760175;80;21035;-69
2022/06/23 08:17:08;;;;;;;5.50;3.17;;;;;;;22.24;72.50;99282.11;1746751;82;20971;-71
2022/06/23 08:19:49;;;;;;;7.45;2.60;;;;;;;22.21;71.67;99282.42;1746513;82;21051;-70
2022/06/23 08:22:23;;;;;;;5.28;2.62;;;;;;;22.13;70.86;99287.66;1763111;80;20919;-70
2022/06/23 08:24:52;;;;;;;5.12;3.10;;;;;;;22.14;71.07;99294.22;1773910;80;21406;-71
2022/06/23 08:27:20;;;;;;;5.33;2.80;;;;;;;22.23;70.79;99290.33;1765419;76;21027;-74
2022/06/23 08:30:03;;;;;;;3.87;3.00;;;;;;;22.26;69.34;99291.35;1757036;81;21439;-73
2022/06/23 08:32:30;;;;;;;13.05;2.83;;;;;;;22.29;68.86;99295.06;1757029;80;21022;-73
2022/06/23 08:35:04;;;;;;;6.10;2.83;;;;;;;22.31;68.60;99291.23;1756839;80;20959;-73
2022/06/23 08:37:49;;;;;;;8.30;2.77;;;;;;;22.38;67.97;99312.92;1756983;81;20923;-73
2022/06/23 08:40:52;;;;;;;8.58;2.58;;;;;;;22.38;67.50;99292.33;1755652;81;21144;-74
2022/06/23 08:43:36;;;;;;;7.62;3.10;;;;;;;22.41;67.16;99294.70;1748189;79;21095;-71
2022/06/23 08:46:26;;;;;;;5.85;2.80;;;;;;;22.61;67.04;99302.58;1748420;82;20983;-71
2022/06/23 08:49:23;;;;;;;3.93;2.67;;;;;;;22.81;67.49;99310.80;1748279;81;20979;-69
2022/06/23 08:51:59;;;;;;;8.83;3.45;;;;;;;23.02;64.20;99308.31;1745518;82;21428;-70
2022/06/23 08:55:06;;;;;;;6.05;2.75;;;;;;;23.11;64.62;99311.40;1746817;82;21011;-70
2022/06/23 08:57:57;;;;;;;5.05;2.67;;;;;;;23.14;64.85;99317.78;1725778;78;21775;-73
2022/06/23 09:01:03;;;;;;;9.03;2.50;;;;;;;23.06;63.39;99315.06;1699237;84;21533;-73
2022/06/23 09:04:06;;;;;;;8.25;2.90;;;;;;;22.78;64.04;99329.08;1670777;85;21077;-72
2022/06/23 09:06:55;;;;;;;3.98;2.47;;;;;;;22.51;65.30;99326.81;1683337;85;21621;-72
2022/06/23 09:09:39;;;;;;;7.30;2.52;;;;;;;22.30;66.20;99330.30;1678032;84;21012;-72
2022/06/23 09:12:46;;;;;;;7.47;2.60;;;;;;;22.14;67.35;99338.97;1681932;84;21229;-70
2022/06/23 09:16:01;;;;;;;8.00;3.12;;;;;;;21.94;68.47;99339.55;1692011;84;21480;-70
2022/06/23 09:19:09;;;;;;;5.72;3.02;;;;;;;21.73;68.28;99353.20;1698395;83;20983;-70
2022/06/23 09:21:44;;;;;;;4.92;3.00;;;;;;;21.50;69.22;99352.21;1691063;83;21015;-70
2022/06/23 09:24:40;;;;;;;7.78;2.90;;;;;;;21.33;70.67;99359.64;1699734;84;21071;-71
2022/06/23 09:27:33;;;;;;;9.90;5.90;;;;;;;21.14;71.62;99360.50;1657534;83;21092;-73
2022/06/23 09:30:08;;;;;;;5.08;2.65;;;;;;;21.01;70.87;99361.31;1711302;82;21518;-74
2022/06/23 09:32:50;;;;;;;6.12;3.70;;;;;;;20.86;70.76;99374.27;1706191;83;21022;-74
2022/06/23 09:35:38;;;;;;;;;;;;;;;20.67;71.64;99371.94;1714180;83;21059;-73
2022/06/23 09:38:32;;;;;;;12.45;5.47;;;;;;;20.51;72.73;99393.01;1685336;84;20159;-73
2022/06/23 09:41:39;;;;;;;10.28;3.77;;;;;;;20.41;74.78;99392.16;1685906;84;22187;-74
2022/06/23 09:44:46;;;;;;;9.15;2.80;;;;;;;20.29;76.21;99394.95;1670895;83;21031;-69
2022/06/23 09:47:42;;;;;;;10.70;4.60;;;;;;;20.21;78.24;99400.11;1701487;83;21332;-69
2022/06/23 09:50:34;;;;;;;9.08;3.85;;;;;;;20.12;80.98;99405.78;1647448;84;21519;-70
2022/06/23 09:53:24;;;;;;;12.20;3.72;;;;;;;20.01;83.49;99417.06;1673919;85;21079;-69
2022/06/23 09:56:12;;;;;;;9.40;3.52;;;;;;;19.89;85.47;99409.13;1631987;85;21514;-69
2022/06/23 09:59:24;;;;;;;5.28;2.95;;;;;;;19.68;85.59;99416.31;1701077;82;20954;-74
2022/06/23 10:02:16;;;;;;;;;;;;;;;19.49;88.12;99418.39;1709862;82;21141;-74
2022/06/23 10:04:58;;;;;;;9.35;4.33;;;;;;;19.34;91.49;99419.20;1762212;80;20595;-73
2022/06/23 10:07:33;;;;;;;;;;;;;;;19.33;92.43;99420.68;1762705;80;21045;-74
2022/06/23 10:10:47;;;;;;;13.18;4.75;;;;;;;19.40;92.70;99423.19;1759628;79;21115;-74
2022/06/23 10:13:39;;;;;;;12.88;6.65;;;;;;;19.45;92.33;99423.63;1748165;79;21488;-71
2022/06/23 10:16:38;;;;;;;8.28;3.95;;;;;;;19.52;92.51;99421.29;1781193;80;21519;-71
2022/06/23 10:19:25;;;;;;;13.10;3.98;;;;;;;19.57;91.90;99429.25;1781615;80;21062;-71
2022/06/23 10:22:22;;;;;;;5.55;3.20;;;;;;;19.61;91.70;99436.03;1776068;80;20998;-73
2022/06/23 10:25:22;;;;;;;6.08;3.20;;;;;;;19.57;90.90;99439.09;1753522;81;21144;-72
2022/06/23 10:28:11;;;;;;;5.92;3.17;;;;;;;19.49;89.58;99439.27;1801483;75;20973;-71
2022/06/23 10:31:14;;;;;;;4.25;3.60;;;;;;;19.44;89.81;99434.81;1837689;77;20890;-71
2022/06/23 10:33:59;;;;;;;9.30;3.30;;;;;;;19.41;89.76;99432.88;1805471;77;21374;-71
2022/06/23 10:36:51;;;;;;;7.97;4.47;;;;;;;19.37;89.14;99434.98;1831448;77;21025;-72
2022/06/23 10:40:11;;;;;;;9.65;4.10;;;;;;;19.37;88.97;99442.98;1810098;77;21281;-72
2022/06/23 10:42:55;;;;;;;12.90;3.60;;;;;;;19.39;86.85;99434.33;1803325;78;20932;-72
2022/06/23 10:45:44;;;;;;;7.03;3.35;;;;;;;19.44;86.78;99432.14;1838762;76;20974;-72
2022/06/23 10:48:43;;;;;;;7.78;3.02;;;;;;;19.48;85.69;99442.89;1791938;77;20994;-71
2022/06/23 10:51:41;;;;;;;7.37;2.90;;;;;;;19.54;85.37;99446.05;1842790;77;21447;-71
2022/06/23 10:54:54;;;;;;;5.87;2.70;;;;;;;19.64;85.37;99449.61;1841444;77;21361;-71
2022/06/23 10:57:34;;;;;;;9.45;3.42;;;;;;;19.73;84.30;99446.18;1835781;77;20975;-70
2022/06/23 11:00:18;;;;;;;;;;;;;;;19.85;82.57;99450.95;1844814;77;20958;-71
2022/06/23 11:03:02;;;;;;;7.40;2.60;;;;;;;19.91;80.51;99447.27;1790219;78;20100;-70
2022/06/23 11:05:47;;;;;;;9.98;2.62;;;;;;;19.97;79.37;99459.73;1795177;79;20995;-71
2022/06/23 11:08:22;;;;;;;8.95;2.33;;;;;;;20.02;77.87;99461.53;1769372;80;21174;-70
2022/06/23 11:11:00;;;;;;;5.17;2.47;;;;;;;20.06;77.05;99473.63;1783861;78;21038;-73
2022/06/23 11:13:49;;;;;;;6.47;2.62;;;;;;;20.11;76.50;99467.41;1829949;78;21009;-73
2022/06/23 11:16:45;;;;;;;4.03;2.20;;;;;;;20.17;76.85;99465.52;1829774;77;21013;-73
2022/06/23 11:19:53;;;;;;;7.55;2.52;;;;;;;20.24;76.29;99470.68;1829825;77;21025;-74
2022/06/23 11:22:34;;;;;;;5.70;2.40;;;;;;;20.33;75.79;99477.89;1825081;78;20947;-74
2022/06/23 11:25:44;;;;;;;5.58;2.50;;;;;;;20.43;75.65;99484.64;1799025;77;28601;-71
2022/06/23 11:28:31;;;;;;;7.20;2.75;;;;;;;20.53;75.19;99490.01;1752663;80;21008;-72
2022/06/23 11:31:27;;;;;;;4.20;2.70;;;;;;;20.65;74.50;99485.42;1750404;81;20915;-71
2022/06/23 11:34:17;;;;;;;6.83;2.80;;;;;;;20.69;72.76;99489.52;1768716;81;21030;-71
2022/06/23 11:37:21;;;;;;;5.55;2.42;;;;;;;20.77;73.06;99486.99;1766475;81;21088;-72
2022/06/23 11:40:38;;;;;;;7.25;2.55;;;;;;;20.89;72.71;99482.36;1766226;81;21014;-72
2022/06/23 11:43:16;;;;;;;4.50;2.83;;;;;;;21.10;71.58;99492.48;1805102;79;21009;-71
2022/06/23 11:46:03;;;;;;;5.42;2.90;;;;;;;21.43;70.87;99491.73;1827740;78;21453;-71
2022/06/23 11:49:15;;;;;;;4.55;2.15;;;;;;;21.70;69.49;99490.16;1802781;78;20989;-72
2022/06/23 11:52:19;;;;;;;2.85;2.47;;;;;;;21.91;67.61;99481.93;1801595;79;21136;-70
2022/06/23 11:55:27;;;;;;;6.47;2.70;;;;;;;22.09;65.96;99488.23;1812185;79;21024;-70
2022/06/23 11:58:19;;;;;;;5.20;2.20;;;;;;;22.18;66.39;99490.53;1773562;80;21455;-72
2022/06/23 12:00:57;;;;;;;4.37;2.72;;;;;;;22.36;66.35;99497.31;1779603;80;21049;-73
2022/06/23 12:03:48;;;;;;;5.75;2.65;;;;;;;22.50;65.62;99498.66;1781567;79;20919;-75
2022/06/23 12:06:26;;;;;;;5.20;2.42;;;;;;;22.60;65.71;99498.13;1773305;80;21102;-73
2022/06/23 12:09:13;;;;;;;11.43;2.45;;;;;;;22.78;65.08;99502.20;1750476;82;21009;-72
2022/06/23 12:11:40;;;;;;;5.33;2.80;;;;;;;22.98;63.62;99506.94;1784525;77;20982;-71
2022/06/23 12:14:09;;;;;;;3.40;2.20;;;;;;;23.15;62.16;99496.75;1791866;80;21447;-71
2022/06/23 12:16:43;;;;;;;7.95;2.37;;;;;;;23.30;61.57;99498.89;1806777;79;21523;-70
2022/06/23 12:19:13;;;;;;;5.37;2.52;;;;;;;23.44;60.74;99501.02;1772420;81;21226;-71
2022/06/23 12:21:46;;;;;;;7.00;2.42;;;;;;;23.54;59.65;99504.48;1803338;78;21009;-71
2022/06/23 12:24:36;;;;;;;6.35;2.87;;;;;;;23.55;59.00;99508.85;1830027;77;21043;-70
2022/06/23 12:27:11;;;;;;;8.35;2.60;;;;;;;23.47;59.83;99511.48;1822121;77;20998;-75
2022/06/23 12:29:52;;;;;;;4.72;2.45;;;;;;;23.50;60.51;99507.64;1818415;78;21033;-76
2022/06/23 12:32:51;;;;;;;6.42;3.77;;;;;;;23.66;60.54;99508.61;1824474;78;21088;-75
2022/06/23 12:35:47;;;;;;;3.02;2.42;;;;;;;23.83;59.97;99511.45;1816018;78;20859;-74
2022/06/23 12:38:28;;;;;;;4.95;2.55;;;;;;;23.85;59.33;99516.17;1816381;78;21333;-74
2022/06/23 12:41:09;;;;;;;4.35;2.40;;;;;;;23.73;59.17;99521.44;1802164;77;21436;-73
2022/06/23 12:43:53;;;;;;;6.10;2.77;;;;;;;23.54;59.97;99535.91;1746249;80;20868;-72
2022/06/23 12:46:44;;;;;;;4.03;2.98;;;;;;;23.39;60.35;99524.84;1755464;81;21222;-72
2022/06/23 12:49:42;;;;;;;4.20;2.33;;;;;;;23.22;60.23;99532.74;1756582;81;21003;-72
2022/06/23 12:52:23;;;;;;;4.15;2.65;;;;;;;23.03;60.45;99538.27;1753937;80;21403;-71
2022/06/23 12:54:59;;;;;;;;;;;;;;;22.83;61.09;99542.36;1733087;80;21072;-71
2022/06/23 12:57:49;;;;;;;9.43;2.87;;;;;;;22.67;61.79;99540.82;1722094;80;20175;-72
2022/06/23 13:00:36;;;;;;;7.30;2.75;;;;;;;22.56;62.48;99546.38;1678069;83;21206;-71
2022/06/23 13:03:50;;;;;;;5.95;2.50;;;;;;;22.47;62.84;99547.27;1667802;83;21003;-70
2022/06/23 13:06:54;;;;;;;3.52;2.85;;;;;;;22.35;62.84;99544.76;1698159;82;20972;-70
2022/06/23 13:09:45;;;;;;;4.15;2.40;;;;;;;22.17;63.97;99547.31;1679731;83;21526;-71
2022/06/23 13:12:26;;;;;;;4.92;2.30;;;;;;;22.08;64.45;99552.72;1745865;79;20963;-70
2022/06/23 13:15:03;;;;;;;4.85;2.80;;;;;;;22.00;64.11;99554.28;1763749;80;21825;-72